sensor_id;sensor_type;location;lat;lon;timestamp;pressure;altitude;pressure_sealevel;temperature;humidity
73566;BME280;61846;52.970;-3.168;2023-06-26T00:01:49;100558.77;;;17.86;40.08
73566;BME280;61846;52.970;-3.168;2023-06-26T00:04:15;100564.25;;;17.47;40.61
73566;BME280;61846;52.970;-3.168;2023-06-26T00:06:40;100568.01;;;18.08;39.73
73566;BME280;61846;52.970;-3.168;2023-06-26T00:09:06;100566.31;;;18.33;39.97
73566;BME280;61846;52.970;-3.168;2023-06-26T00:11:31;100563.79;;;18.87;39.07
73566;BME280;61846;52.970;-3.168;2023-06-26T00:13:56;100563.28;;;18.23;39.96
73566;BME280;61846;52.970;-3.168;2023-06-26T00:16:22;100560.53;;;18.92;39.36
73566;BME280;61846;52.970;-3.168;2023-06-26T00:18:47;100565.52;;;18.88;38.61
73566;BME280;61846;52.970;-3.168;2023-06-26T00:21:13;100562.63;;;19.18;38.23
73566;BME280;61846;52.970;-3.168;2023-06-26T00:23:38;100569.35;;;18.42;39.09
73566;BME280;61846;52.970;-3.168;2023-06-26T00:26:04;100572.89;;;18.83;38.59
73566;BME280;61846;52.970;-3.168;2023-06-26T00:28:29;100580.19;;;18.68;38.88
73566;BME280;61846;52.970;-3.168;2023-06-26T00:30:54;100579.09;;;18.64;38.73
73566;BME280;61846;52.970;-3.168;2023-06-26T00:33:20;100583.41;;;17.96;40.30
73566;BME280;61846;52.970;-3.168;2023-06-26T00:35:45;100580.00;;;18.49;38.86
73566;BME280;61846;52.970;-3.168;2023-06-26T00:38:11;100579.16;;;18.80;38.04
73566;BME280;61846;52.970;-3.168;2023-06-26T00:40:36;100581.87;;;19.12;38.18
73566;BME280;61846;52.970;-3.168;2023-06-26T00:43:02;100587.37;;;19.31;38.34
73566;BME280;61846;52.970;-3.168;2023-06-26T00:45:28;100597.08;;;17.98;39.28
73566;BME280;61846;52.970;-3.168;2023-06-26T00:47:53;100603.54;;;17.99;39.99
73566;BME280;61846;52.970;-3.168;2023-06-26T00:50:18;100605.98;;;18.35;39.62
73566;BME280;61846;52.970;-3.168;2023-06-26T00:52:43;100597.34;;;18.75;39.13
73566;BME280;61846;52.970;-3.168;2023-06-26T00:55:09;100600.64;;;18.24;39.22
73566;BME280;61846;52.970;-3.168;2023-06-26T00:57:34;100598.02;;;18.43;39.26
73566;BME280;61846;52.970;-3.168;2023-06-26T01:00:01;100595.00;;;18.84;38.32
73566;BME280;61846;52.970;-3.168;2023-06-26T01:02:25;100597.67;;;18.20;39.90
73566;BME280;61846;52.970;-3.168;2023-06-26T01:04:51;100594.89;;;18.76;38.69
73566;BME280;61846;52.970;-3.168;2023-06-26T01:07:16;100595.14;;;19.30;38.47
73566;BME280;61846;52.970;-3.168;2023-06-26T01:09:41;100599.11;;;19.02;38.33
73566;BME280;61846;52.970;-3.168;2023-06-26T01:12:07;100601.69;;;18.98;38.14
73566;BME280;61846;52.970;-3.168;2023-06-26T01:14:34;100607.68;;;18.11;39.63
73566;BME280;61846;52.970;-3.168;2023-06-26T01:16:58;100604.45;;;19.22;38.27
73566;BME280;61846;52.970;-3.168;2023-06-26T01:19:24;100604.33;;;18.82;38.86
73566;BME280;61846;52.970;-3.168;2023-06-26T01:21:49;100604.43;;;18.31;39.58
73566;BME280;61846;52.970;-3.168;2023-06-26T01:24:17;100608.59;;;18.63;39.13
73566;BME280;61846;52.970;-3.168;2023-06-26T01:26:40;100611.17;;;18.50;39.99
73566;BME280;61846;52.970;-3.168;2023-06-26T01:29:06;100609.82;;;18.93;39.01
73566;BME280;61846;52.970;-3.168;2023-06-26T01:31:31;100613.09;;;18.60;39.59
73566;BME280;61846;52.970;-3.168;2023-06-26T01:33:57;100613.75;;;19.10;39.04
73566;BME280;61846;52.970;-3.168;2023-06-26T01:36:22;100615.42;;;18.95;39.31
73566;BME280;61846;52.970;-3.168;2023-06-26T01:38:46;100616.27;;;19.15;39.05
73566;BME280;61846;52.970;-3.168;2023-06-26T01:41:12;100611.40;;;19.29;38.57
73566;BME280;61846;52.970;-3.168;2023-06-26T01:43:44;100616.97;;;19.21;38.79
73566;BME280;61846;52.970;-3.168;2023-06-26T01:46:06;100618.87;;;18.93;38.87
73566;BME280;61846;52.970;-3.168;2023-06-26T01:48:32;100612.56;;;18.88;39.21
73566;BME280;61846;52.970;-3.168;2023-06-26T01:50:54;100612.65;;;18.39;39.90
73566;BME280;61846;52.970;-3.168;2023-06-26T01:53:23;100617.18;;;18.42;39.98
73566;BME280;61846;52.970;-3.168;2023-06-26T01:55:47;100618.66;;;18.30;40.24
73566;BME280;61846;52.970;-3.168;2023-06-26T01:58:10;100623.40;;;17.84;40.98
73566;BME280;61846;52.970;-3.168;2023-06-26T02:00:36;100622.67;;;18.60;40.07
73566;BME280;61846;52.970;-3.168;2023-06-26T02:03:00;100623.02;;;18.77;39.87
73566;BME280;61846;52.970;-3.168;2023-06-26T02:05:26;100619.56;;;18.51;40.08
73566;BME280;61846;52.970;-3.168;2023-06-26T02:07:51;100618.11;;;18.89;40.01
73566;BME280;61846;52.970;-3.168;2023-06-26T02:10:17;100614.49;;;18.59;40.66
73566;BME280;61846;52.970;-3.168;2023-06-26T02:12:42;100621.85;;;17.64;41.95
73566;BME280;61846;52.970;-3.168;2023-06-26T02:15:08;100613.85;;;19.00;40.53
73566;BME280;61846;52.970;-3.168;2023-06-26T02:17:33;100612.81;;;18.66;40.35
73566;BME280;61846;52.970;-3.168;2023-06-26T02:19:59;100617.60;;;18.72;40.14
73566;BME280;61846;52.970;-3.168;2023-06-26T02:22:24;100629.33;;;18.46;40.69
73566;BME280;61846;52.970;-3.168;2023-06-26T02:24:49;100631.84;;;18.37;41.32
73566;BME280;61846;52.970;-3.168;2023-06-26T02:27:15;100623.42;;;17.66;41.92
73566;BME280;61846;52.970;-3.168;2023-06-26T02:29:41;100626.61;;;17.56;42.61
73566;BME280;61846;52.970;-3.168;2023-06-26T02:32:06;100632.16;;;18.31;41.49
73566;BME280;61846;52.970;-3.168;2023-06-26T02:34:32;100629.07;;;18.24;41.16
73566;BME280;61846;52.970;-3.168;2023-06-26T02:36:56;100637.95;;;18.33;40.76
73566;BME280;61846;52.970;-3.168;2023-06-26T02:39:22;100640.57;;;17.99;41.25
73566;BME280;61846;52.970;-3.168;2023-06-26T02:41:48;100645.16;;;18.18;41.62
73566;BME280;61846;52.970;-3.168;2023-06-26T02:44:13;100646.56;;;18.18;41.23
73566;BME280;61846;52.970;-3.168;2023-06-26T02:46:38;100644.44;;;17.11;42.81
73566;BME280;61846;52.970;-3.168;2023-06-26T02:49:04;100643.68;;;17.16;43.27
73566;BME280;61846;52.970;-3.168;2023-06-26T02:51:31;100642.51;;;17.10;43.12
73566;BME280;61846;52.970;-3.168;2023-06-26T02:53:55;100651.79;;;17.59;42.28
73566;BME280;61846;52.970;-3.168;2023-06-26T02:56:20;100656.70;;;17.55;42.59
73566;BME280;61846;52.970;-3.168;2023-06-26T02:58:45;100663.62;;;17.55;42.43
73566;BME280;61846;52.970;-3.168;2023-06-26T03:01:11;100661.41;;;17.50;42.09
73566;BME280;61846;52.970;-3.168;2023-06-26T03:03:36;100660.55;;;17.26;42.51
73566;BME280;61846;52.970;-3.168;2023-06-26T03:06:02;100660.72;;;17.90;41.64
73566;BME280;61846;52.970;-3.168;2023-06-26T03:08:27;100659.97;;;18.25;40.96
73566;BME280;61846;52.970;-3.168;2023-06-26T03:10:53;100664.04;;;17.81;41.34
73566;BME280;61846;52.970;-3.168;2023-06-26T03:13:18;100668.98;;;17.51;41.72
73566;BME280;61846;52.970;-3.168;2023-06-26T03:15:44;100670.88;;;17.33;42.12
73566;BME280;61846;52.970;-3.168;2023-06-26T03:18:09;100671.50;;;17.78;41.64
73566;BME280;61846;52.970;-3.168;2023-06-26T03:20:35;100672.41;;;17.45;42.05
73566;BME280;61846;52.970;-3.168;2023-06-26T03:23:00;100673.14;;;17.85;41.37
73566;BME280;61846;52.970;-3.168;2023-06-26T03:25:26;100671.26;;;17.48;41.81
73566;BME280;61846;52.970;-3.168;2023-06-26T03:27:51;100670.35;;;17.88;41.37
73566;BME280;61846;52.970;-3.168;2023-06-26T03:30:16;100676.03;;;17.33;41.78
73566;BME280;61846;52.970;-3.168;2023-06-26T03:32:41;100682.80;;;17.57;42.04
73566;BME280;61846;52.970;-3.168;2023-06-26T03:35:07;100685.45;;;18.64;40.28
73566;BME280;61846;52.970;-3.168;2023-06-26T03:37:33;100695.76;;;17.58;41.37
73566;BME280;61846;52.970;-3.168;2023-06-26T03:39:58;100697.73;;;17.06;42.51
73566;BME280;61846;52.970;-3.168;2023-06-26T03:42:23;100704.54;;;17.60;41.39
73566;BME280;61846;52.970;-3.168;2023-06-26T03:44:49;100709.35;;;17.46;41.18
73566;BME280;61846;52.970;-3.168;2023-06-26T03:47:14;100714.27;;;18.10;40.77
73566;BME280;61846;52.970;-3.168;2023-06-26T03:49:39;100714.40;;;17.83;40.82
73566;BME280;61846;52.970;-3.168;2023-06-26T03:52:05;100717.12;;;17.79;40.85
73566;BME280;61846;52.970;-3.168;2023-06-26T03:54:31;100718.02;;;18.10;40.20
73566;BME280;61846;52.970;-3.168;2023-06-26T03:56:55;100718.21;;;17.86;40.30
73566;BME280;61846;52.970;-3.168;2023-06-26T03:59:21;100716.30;;;17.85;40.35
73566;BME280;61846;52.970;-3.168;2023-06-26T04:01:46;100717.18;;;17.85;39.94
73566;BME280;61846;52.970;-3.168;2023-06-26T04:04:12;100716.34;;;17.38;40.87
73566;BME280;61846;52.970;-3.168;2023-06-26T04:06:37;100719.75;;;17.05;42.05
73566;BME280;61846;52.970;-3.168;2023-06-26T04:09:03;100723.16;;;17.33;42.17
73566;BME280;61846;52.970;-3.168;2023-06-26T04:11:28;100726.68;;;17.53;42.10
73566;BME280;61846;52.970;-3.168;2023-06-26T04:13:54;100736.29;;;16.37;44.15
73566;BME280;61846;52.970;-3.168;2023-06-26T04:16:21;100737.27;;;16.25;44.57
73566;BME280;61846;52.970;-3.168;2023-06-26T04:18:44;100739.51;;;16.37;43.91
73566;BME280;61846;52.970;-3.168;2023-06-26T04:21:12;100738.18;;;17.44;41.23
73566;BME280;61846;52.970;-3.168;2023-06-26T04:23:35;100741.28;;;17.61;40.96
73566;BME280;61846;52.970;-3.168;2023-06-26T04:26:01;100738.65;;;17.64;41.09
73566;BME280;61846;52.970;-3.168;2023-06-26T04:28:26;100738.33;;;16.38;43.12
73566;BME280;61846;52.970;-3.168;2023-06-26T04:30:52;100739.04;;;16.81;42.63
73566;BME280;61846;52.970;-3.168;2023-06-26T04:33:17;100741.54;;;17.19;42.18
73566;BME280;61846;52.970;-3.168;2023-06-26T04:35:43;100745.20;;;16.97;42.75
73566;BME280;61846;52.970;-3.168;2023-06-26T04:38:08;100746.92;;;16.74;42.46
73566;BME280;61846;52.970;-3.168;2023-06-26T04:40:33;100751.73;;;17.18;41.79
73566;BME280;61846;52.970;-3.168;2023-06-26T04:42:59;100754.35;;;17.59;41.36
73566;BME280;61846;52.970;-3.168;2023-06-26T04:45:24;100754.25;;;17.23;42.86
73566;BME280;61846;52.970;-3.168;2023-06-26T04:47:50;100752.97;;;16.85;42.13
73566;BME280;61846;52.970;-3.168;2023-06-26T04:50:15;100754.10;;;17.63;41.28
73566;BME280;61846;52.970;-3.168;2023-06-26T04:52:41;100754.71;;;16.40;43.53
73566;BME280;61846;52.970;-3.168;2023-06-26T04:55:07;100752.26;;;17.50;42.30
73566;BME280;61846;52.970;-3.168;2023-06-26T04:57:32;100755.94;;;17.61;42.20
73566;BME280;61846;52.970;-3.168;2023-06-26T04:59:57;100756.80;;;17.47;41.88
73566;BME280;61846;52.970;-3.168;2023-06-26T05:02:23;100758.78;;;17.20;42.84
73566;BME280;61846;52.970;-3.168;2023-06-26T05:04:48;100758.39;;;17.27;42.90
73566;BME280;61846;52.970;-3.168;2023-06-26T05:07:14;100754.69;;;17.36;42.19
73566;BME280;61846;52.970;-3.168;2023-06-26T05:09:39;100758.92;;;17.92;41.12
73566;BME280;61846;52.970;-3.168;2023-06-26T05:12:05;100767.11;;;17.87;40.62
73566;BME280;61846;52.970;-3.168;2023-06-26T05:14:31;100768.29;;;17.21;41.61
73566;BME280;61846;52.970;-3.168;2023-06-26T05:16:55;100769.37;;;16.83;42.91
73566;BME280;61846;52.970;-3.168;2023-06-26T05:19:21;100779.77;;;16.95;43.79
73566;BME280;61846;52.970;-3.168;2023-06-26T05:21:48;100786.15;;;17.23;42.95
73566;BME280;61846;52.970;-3.168;2023-06-26T05:24:13;100789.00;;;17.49;42.22
73566;BME280;61846;52.970;-3.168;2023-06-26T05:26:38;100793.82;;;17.48;42.11
73566;BME280;61846;52.970;-3.168;2023-06-26T05:29:03;100797.78;;;17.10;42.58
73566;BME280;61846;52.970;-3.168;2023-06-26T05:31:30;100796.58;;;17.83;41.31
73566;BME280;61846;52.970;-3.168;2023-06-26T05:33:55;100795.03;;;17.61;41.71
73566;BME280;61846;52.970;-3.168;2023-06-26T05:36:20;100797.99;;;17.09;42.50
73566;BME280;61846;52.970;-3.168;2023-06-26T05:38:45;100798.01;;;17.83;41.17
73566;BME280;61846;52.970;-3.168;2023-06-26T05:41:11;100797.36;;;17.83;41.22
73566;BME280;61846;52.970;-3.168;2023-06-26T05:43:36;100798.01;;;18.17;40.55
73566;BME280;61846;52.970;-3.168;2023-06-26T05:46:01;100801.58;;;18.58;40.06
73566;BME280;61846;52.970;-3.168;2023-06-26T05:48:27;100806.26;;;18.69;39.53
73566;BME280;61846;52.970;-3.168;2023-06-26T05:50:53;100808.75;;;18.76;39.46
73566;BME280;61846;52.970;-3.168;2023-06-26T05:53:18;100807.03;;;17.94;38.91
73566;BME280;61846;52.970;-3.168;2023-06-26T05:55:44;100812.88;;;18.53;39.03
73566;BME280;61846;52.970;-3.168;2023-06-26T05:58:10;100816.16;;;18.31;39.69
73566;BME280;61846;52.970;-3.168;2023-06-26T06:00:34;100815.90;;;18.10;39.22
73566;BME280;61846;52.970;-3.168;2023-06-26T06:02:59;100813.09;;;18.36;39.79
73566;BME280;61846;52.970;-3.168;2023-06-26T06:05:25;100811.38;;;18.57;38.47
73566;BME280;61846;52.970;-3.168;2023-06-26T06:07:50;100808.25;;;18.43;38.38
73566;BME280;61846;52.970;-3.168;2023-06-26T06:10:16;100812.82;;;18.85;38.84
73566;BME280;61846;52.970;-3.168;2023-06-26T06:12:41;100815.52;;;18.45;38.11
73566;BME280;61846;52.970;-3.168;2023-06-26T06:15:07;100819.55;;;18.57;37.91
73566;BME280;61846;52.970;-3.168;2023-06-26T06:17:32;100820.36;;;18.73;38.16
73566;BME280;61846;52.970;-3.168;2023-06-26T06:19:57;100821.85;;;18.27;38.63
73566;BME280;61846;52.970;-3.168;2023-06-26T06:22:23;100818.12;;;18.60;39.01
73566;BME280;61846;52.970;-3.168;2023-06-26T06:24:49;100818.78;;;18.63;38.23
73566;BME280;61846;52.970;-3.168;2023-06-26T06:27:13;100824.75;;;18.53;38.34
73566;BME280;61846;52.970;-3.168;2023-06-26T06:29:39;100834.10;;;19.29;37.76
73566;BME280;61846;52.970;-3.168;2023-06-26T06:32:05;100830.84;;;19.09;37.24
73566;BME280;61846;52.970;-3.168;2023-06-26T06:34:30;100835.89;;;19.35;37.82
73566;BME280;61846;52.970;-3.168;2023-06-26T06:36:55;100834.97;;;19.10;38.29
73566;BME280;61846;52.970;-3.168;2023-06-26T06:39:20;100836.40;;;18.95;38.28
73566;BME280;61846;52.970;-3.168;2023-06-26T06:41:46;100829.82;;;19.20;37.25
73566;BME280;61846;52.970;-3.168;2023-06-26T06:44:11;100832.62;;;19.42;37.62
73566;BME280;61846;52.970;-3.168;2023-06-26T06:46:37;100836.78;;;18.55;38.28
73566;BME280;61846;52.970;-3.168;2023-06-26T06:49:02;100833.03;;;18.90;38.80
73566;BME280;61846;52.970;-3.168;2023-06-26T06:51:28;100831.09;;;18.09;38.70
73566;BME280;61846;52.970;-3.168;2023-06-26T06:53:53;100827.18;;;18.20;40.26
73566;BME280;61846;52.970;-3.168;2023-06-26T06:56:19;100832.70;;;18.30;40.24
73566;BME280;61846;52.970;-3.168;2023-06-26T06:58:44;100827.75;;;17.35;40.93
73566;BME280;61846;52.970;-3.168;2023-06-26T07:01:09;100828.25;;;17.17;41.59
73566;BME280;61846;52.970;-3.168;2023-06-26T07:03:35;100832.39;;;17.47;40.50
73566;BME280;61846;52.970;-3.168;2023-06-26T07:06:01;100833.66;;;17.80;40.19
73566;BME280;61846;52.970;-3.168;2023-06-26T07:08:26;100843.97;;;17.52;41.79
73566;BME280;61846;52.970;-3.168;2023-06-26T07:10:51;100845.23;;;17.45;42.20
73566;BME280;61846;52.970;-3.168;2023-06-26T07:13:16;100845.52;;;17.74;41.33
73566;BME280;61846;52.970;-3.168;2023-06-26T07:15:42;100851.09;;;17.26;40.83
73566;BME280;61846;52.970;-3.168;2023-06-26T07:18:07;100847.03;;;18.05;40.60
73566;BME280;61846;52.970;-3.168;2023-06-26T07:20:32;100855.12;;;17.98;39.78
73566;BME280;61846;52.970;-3.168;2023-06-26T07:22:58;100855.68;;;18.97;39.97
73566;BME280;61846;52.970;-3.168;2023-06-26T07:25:23;100853.87;;;18.91;39.59
73566;BME280;61846;52.970;-3.168;2023-06-26T07:27:49;100848.88;;;18.91;39.12
73566;BME280;61846;52.970;-3.168;2023-06-26T07:30:14;100850.09;;;19.11;37.80
73566;BME280;61846;52.970;-3.168;2023-06-26T07:32:40;100851.82;;;19.24;37.24
73566;BME280;61846;52.970;-3.168;2023-06-26T07:35:05;100849.46;;;19.15;38.55
73566;BME280;61846;52.970;-3.168;2023-06-26T07:37:31;100856.67;;;19.09;37.99
73566;BME280;61846;52.970;-3.168;2023-06-26T07:39:57;100869.55;;;18.69;36.92
73566;BME280;61846;52.970;-3.168;2023-06-26T07:42:21;100868.93;;;18.31;37.68
73566;BME280;61846;52.970;-3.168;2023-06-26T07:44:47;100874.91;;;18.14;38.50
73566;BME280;61846;52.970;-3.168;2023-06-26T07:47:12;100876.87;;;16.81;41.03
73566;BME280;61846;52.970;-3.168;2023-06-26T07:49:38;100885.34;;;16.57;40.74
73566;BME280;61846;52.970;-3.168;2023-06-26T07:52:03;100878.36;;;17.34;39.15
73566;BME280;61846;52.970;-3.168;2023-06-26T07:54:28;100875.23;;;17.24;40.25
73566;BME280;61846;52.970;-3.168;2023-06-26T07:56:55;100878.24;;;18.24;38.45
73566;BME280;61846;52.970;-3.168;2023-06-26T07:59:19;100898.69;;;17.73;36.32
73566;BME280;61846;52.970;-3.168;2023-06-26T08:01:44;100902.73;;;16.81;39.75
73566;BME280;61846;52.970;-3.168;2023-06-26T08:04:10;100890.55;;;16.53;39.14
73566;BME280;61846;52.970;-3.168;2023-06-26T08:06:35;100884.28;;;16.16;40.77
73566;BME280;61846;52.970;-3.168;2023-06-26T08:09:00;100886.28;;;16.00;41.77
73566;BME280;61846;52.970;-3.168;2023-06-26T08:11:26;100893.19;;;15.84;43.02
73566;BME280;61846;52.970;-3.168;2023-06-26T08:13:51;100897.92;;;16.32;39.87
73566;BME280;61846;52.970;-3.168;2023-06-26T08:16:17;100882.73;;;16.77;40.63
73566;BME280;61846;52.970;-3.168;2023-06-26T08:18:43;100882.36;;;17.34;38.60
73566;BME280;61846;52.970;-3.168;2023-06-26T08:21:08;100885.12;;;18.08;37.69
73566;BME280;61846;52.970;-3.168;2023-06-26T08:23:33;100882.38;;;17.82;37.64
73566;BME280;61846;52.970;-3.168;2023-06-26T08:25:58;100886.73;;;18.27;36.36
73566;BME280;61846;52.970;-3.168;2023-06-26T08:28:24;100889.29;;;18.64;36.85
73566;BME280;61846;52.970;-3.168;2023-06-26T08:30:49;100887.52;;;19.06;35.52
73566;BME280;61846;52.970;-3.168;2023-06-26T08:33:15;100888.23;;;19.36;35.43
73566;BME280;61846;52.970;-3.168;2023-06-26T08:35:40;100900.05;;;18.64;34.92
73566;BME280;61846;52.970;-3.168;2023-06-26T08:38:05;100908.12;;;18.80;35.46
73566;BME280;61846;52.970;-3.168;2023-06-26T08:40:32;100908.47;;;18.41;35.23
73566;BME280;61846;52.970;-3.168;2023-06-26T08:42:56;100900.72;;;17.67;37.74
73566;BME280;61846;52.970;-3.168;2023-06-26T08:45:21;100903.16;;;17.48;40.50
73566;BME280;61846;52.970;-3.168;2023-06-26T08:47:48;100902.89;;;17.54;38.75
73566;BME280;61846;52.970;-3.168;2023-06-26T08:50:13;100910.37;;;18.07;37.30
73566;BME280;61846;52.970;-3.168;2023-06-26T08:52:43;100905.13;;;17.63;39.07
73566;BME280;61846;52.970;-3.168;2023-06-26T08:55:08;100906.11;;;17.85;38.48
73566;BME280;61846;52.970;-3.168;2023-06-26T08:57:31;100899.26;;;18.34;40.10
73566;BME280;61846;52.970;-3.168;2023-06-26T08:59:53;100901.85;;;19.02;37.35
73566;BME280;61846;52.970;-3.168;2023-06-26T09:02:19;100898.10;;;20.10;36.33
73566;BME280;61846;52.970;-3.168;2023-06-26T09:04:44;100894.88;;;19.92;35.69
73566;BME280;61846;52.970;-3.168;2023-06-26T09:07:09;100900.07;;;18.92;33.45
73566;BME280;61846;52.970;-3.168;2023-06-26T09:09:35;100908.38;;;19.56;32.53
73566;BME280;61846;52.970;-3.168;2023-06-26T09:12:01;100903.32;;;19.27;33.99
73566;BME280;61846;52.970;-3.168;2023-06-26T09:14:25;100909.63;;;18.96;33.57
73566;BME280;61846;52.970;-3.168;2023-06-26T09:16:50;100907.62;;;18.29;36.85
73566;BME280;61846;52.970;-3.168;2023-06-26T09:19:16;100911.69;;;18.51;35.43
73566;BME280;61846;52.970;-3.168;2023-06-26T09:21:42;100916.80;;;17.93;36.80
73566;BME280;61846;52.970;-3.168;2023-06-26T09:24:08;100910.19;;;17.50;35.54
73566;BME280;61846;52.970;-3.168;2023-06-26T09:26:32;100921.25;;;17.46;35.84
73566;BME280;61846;52.970;-3.168;2023-06-26T09:28:58;100908.10;;;18.24;35.67
73566;BME280;61846;52.970;-3.168;2023-06-26T09:31:24;100914.24;;;18.40;35.96
73566;BME280;61846;52.970;-3.168;2023-06-26T09:33:49;100912.66;;;18.92;36.11
73566;BME280;61846;52.970;-3.168;2023-06-26T09:36:20;100907.44;;;18.81;36.62
73566;BME280;61846;52.970;-3.168;2023-06-26T09:38:39;100912.87;;;19.14;37.03
73566;BME280;61846;52.970;-3.168;2023-06-26T09:41:05;100921.32;;;19.70;34.79
73566;BME280;61846;52.970;-3.168;2023-06-26T09:43:30;100914.45;;;19.99;34.58
73566;BME280;61846;52.970;-3.168;2023-06-26T09:45:58;100929.51;;;20.17;31.37
73566;BME280;61846;52.970;-3.168;2023-06-26T09:48:21;100922.68;;;19.93;31.21
73566;BME280;61846;52.970;-3.168;2023-06-26T09:50:46;100931.73;;;19.13;33.09
73566;BME280;61846;52.970;-3.168;2023-06-26T09:53:12;100929.15;;;20.49;36.61
73566;BME280;61846;52.970;-3.168;2023-06-26T09:55:37;100932.97;;;21.08;30.35
73566;BME280;61846;52.970;-3.168;2023-06-26T09:58:03;100933.40;;;21.43;29.83
73566;BME280;61846;52.970;-3.168;2023-06-26T10:00:27;100928.06;;;20.62;29.91
73566;BME280;61846;52.970;-3.168;2023-06-26T10:02:53;100928.71;;;21.12;30.02
73566;BME280;61846;52.970;-3.168;2023-06-26T10:05:18;100947.06;;;20.53;30.78
73566;BME280;61846;52.970;-3.168;2023-06-26T10:07:44;100942.24;;;19.90;33.13
73566;BME280;61846;52.970;-3.168;2023-06-26T10:10:10;100946.24;;;20.88;32.21
73566;BME280;61846;52.970;-3.168;2023-06-26T10:12:34;100947.94;;;20.00;31.42
73566;BME280;61846;52.970;-3.168;2023-06-26T10:15:02;100944.43;;;20.95;29.63
73566;BME280;61846;52.970;-3.168;2023-06-26T10:17:28;100946.98;;;21.08;31.80
73566;BME280;61846;52.970;-3.168;2023-06-26T10:19:50;100948.28;;;21.00;29.68
73566;BME280;61846;52.970;-3.168;2023-06-26T10:22:17;100953.22;;;21.24;29.89
73566;BME280;61846;52.970;-3.168;2023-06-26T10:24:41;100959.62;;;20.53;30.95
73566;BME280;61846;52.970;-3.168;2023-06-26T10:27:10;100973.54;;;20.09;29.60
73566;BME280;61846;52.970;-3.168;2023-06-26T10:29:32;100970.69;;;20.74;30.94
73566;BME280;61846;52.970;-3.168;2023-06-26T10:31:58;100975.82;;;20.73;29.49
73566;BME280;61846;52.970;-3.168;2023-06-26T10:34:22;100976.91;;;20.42;30.38
73566;BME280;61846;52.970;-3.168;2023-06-26T10:36:47;100971.64;;;19.95;32.45
73566;BME280;61846;52.970;-3.168;2023-06-26T10:39:13;100969.15;;;20.93;30.43
73566;BME280;61846;52.970;-3.168;2023-06-26T10:41:40;100978.34;;;20.59;29.33
73566;BME280;61846;52.970;-3.168;2023-06-26T10:44:08;100973.57;;;20.58;31.28
73566;BME280;61846;52.970;-3.168;2023-06-26T10:46:33;100970.68;;;20.70;30.41
73566;BME280;61846;52.970;-3.168;2023-06-26T10:48:58;100976.70;;;20.49;30.27
73566;BME280;61846;52.970;-3.168;2023-06-26T10:51:20;100976.34;;;20.96;31.10
73566;BME280;61846;52.970;-3.168;2023-06-26T10:53:50;100966.94;;;20.65;30.04
73566;BME280;61846;52.970;-3.168;2023-06-26T10:56:10;100987.91;;;20.12;30.50
73566;BME280;61846;52.970;-3.168;2023-06-26T10:58:41;100967.06;;;19.95;30.82
73566;BME280;61846;52.970;-3.168;2023-06-26T11:01:14;100987.84;;;20.16;30.61
73566;BME280;61846;52.970;-3.168;2023-06-26T11:03:29;100984.44;;;20.56;30.84
73566;BME280;61846;52.970;-3.168;2023-06-26T11:08:17;100996.10;;;20.11;30.53
73566;BME280;61846;52.970;-3.168;2023-06-26T11:10:49;100982.49;;;19.72;30.65
73566;BME280;61846;52.970;-3.168;2023-06-26T11:13:07;100995.10;;;20.90;31.52
73566;BME280;61846;52.970;-3.168;2023-06-26T11:15:34;100996.28;;;20.79;29.92
73566;BME280;61846;52.970;-3.168;2023-06-26T11:17:58;101006.64;;;21.28;29.23
73566;BME280;61846;52.970;-3.168;2023-06-26T11:20:23;101010.12;;;20.12;30.78
73566;BME280;61846;52.970;-3.168;2023-06-26T11:22:52;101017.65;;;19.33;31.52
73566;BME280;61846;52.970;-3.168;2023-06-26T11:25:14;101018.11;;;19.45;32.37
73566;BME280;61846;52.970;-3.168;2023-06-26T11:27:40;101020.59;;;19.47;30.73
73566;BME280;61846;52.970;-3.168;2023-06-26T11:30:06;101029.89;;;19.58;30.41
73566;BME280;61846;52.970;-3.168;2023-06-26T11:32:30;101018.14;;;19.86;29.41
73566;BME280;61846;52.970;-3.168;2023-06-26T11:34:55;101009.94;;;19.53;31.14
73566;BME280;61846;52.970;-3.168;2023-06-26T11:37:21;101015.43;;;19.98;29.95
73566;BME280;61846;52.970;-3.168;2023-06-26T11:39:46;101016.38;;;20.40;30.59
73566;BME280;61846;52.970;-3.168;2023-06-26T11:42:12;101027.22;;;20.82;30.82
73566;BME280;61846;52.970;-3.168;2023-06-26T11:44:40;101021.33;;;20.75;28.49
73566;BME280;61846;52.970;-3.168;2023-06-26T11:47:02;101019.28;;;19.79;30.10
73566;BME280;61846;52.970;-3.168;2023-06-26T11:49:29;101019.04;;;19.56;30.93
73566;BME280;61846;52.970;-3.168;2023-06-26T11:51:53;101026.35;;;19.58;30.48
73566;BME280;61846;52.970;-3.168;2023-06-26T11:54:25;101033.11;;;19.93;30.30
73566;BME280;61846;52.970;-3.168;2023-06-26T11:56:51;101028.03;;;19.77;32.87
73566;BME280;61846;52.970;-3.168;2023-06-26T11:59:11;101034.00;;;20.64;31.06
73566;BME280;61846;52.970;-3.168;2023-06-26T12:01:36;101035.47;;;20.28;30.16
73566;BME280;61846;52.970;-3.168;2023-06-26T12:04:01;101035.62;;;21.16;29.14
73566;BME280;61846;52.970;-3.168;2023-06-26T12:06:25;101047.12;;;21.09;28.92
73566;BME280;61846;52.970;-3.168;2023-06-26T12:08:51;101036.60;;;20.88;29.02
73566;BME280;61846;52.970;-3.168;2023-06-26T12:11:17;101028.13;;;20.74;31.22
73566;BME280;61846;52.970;-3.168;2023-06-26T12:13:41;101048.32;;;20.87;28.47
73566;BME280;61846;52.970;-3.168;2023-06-26T12:16:06;101038.04;;;20.52;32.84
73566;BME280;61846;52.970;-3.168;2023-06-26T12:18:34;101037.39;;;20.61;31.02
73566;BME280;61846;52.970;-3.168;2023-06-26T12:20:57;101037.89;;;21.21;30.86
73566;BME280;61846;52.970;-3.168;2023-06-26T12:23:22;101031.58;;;21.52;28.81
73566;BME280;61846;52.970;-3.168;2023-06-26T12:25:48;101035.45;;;20.05;31.92
73566;BME280;61846;52.970;-3.168;2023-06-26T12:28:17;101047.47;;;20.71;30.17
73566;BME280;61846;52.970;-3.168;2023-06-26T12:30:38;101038.63;;;20.59;31.11
73566;BME280;61846;52.970;-3.168;2023-06-26T12:33:04;101026.63;;;20.87;30.33